createdAt,value
2023-02-21T00:01:20.333Z,8.70
2023-02-21T00:04:05.618Z,8.70
2023-02-21T00:06:52.003Z,8.70
2023-02-21T00:09:40.377Z,8.70
2023-02-21T00:12:31.705Z,8.70
2023-02-21T00:15:18.114Z,8.70
2023-02-21T00:18:04.640Z,8.70
2023-02-21T00:20:53.205Z,8.60
2023-02-21T00:23:38.553Z,8.60
2023-02-21T00:26:28.010Z,8.60
2023-02-21T00:29:15.464Z,8.70
2023-02-21T00:32:03.886Z,8.60
2023-02-21T00:34:50.205Z,8.60
2023-02-21T00:37:36.562Z,8.50
2023-02-21T00:40:24.350Z,8.60
2023-02-21T00:43:15.720Z,8.60
2023-02-21T00:46:07.265Z,8.60
2023-02-21T00:48:58.666Z,8.60
2023-02-21T00:51:47.054Z,8.50
2023-02-21T00:54:32.549Z,8.60
2023-02-21T00:57:18.048Z,8.60
2023-02-21T01:00:04.527Z,8.60
2023-02-21T01:02:51.021Z,8.60
2023-02-21T01:05:36.281Z,8.60
2023-02-21T01:08:22.612Z,8.60
2023-02-21T01:11:11.156Z,8.60
2023-02-21T01:13:59.625Z,8.60
2023-02-21T01:16:47.831Z,8.50
2023-02-21T01:19:36.773Z,8.50
2023-02-21T01:22:23.277Z,8.50
2023-02-21T01:25:11.647Z,8.50
2023-02-21T01:28:04.977Z,8.50
2023-02-21T01:30:51.263Z,8.50
2023-02-21T01:33:37.098Z,8.50
2023-02-21T01:36:27.326Z,8.50
2023-02-21T01:39:14.751Z,8.50
2023-02-21T01:42:01.221Z,8.50
2023-02-21T01:45:00.876Z,8.50
2023-02-21T01:47:49.875Z,8.50
2023-02-21T01:50:43.412Z,8.50
2023-02-21T01:53:39.872Z,8.50
2023-02-21T01:56:29.713Z,8.50
2023-02-21T01:59:19.548Z,8.50
2023-02-21T02:02:33.158Z,8.50
2023-02-21T02:05:22.058Z,8.50
2023-02-21T02:08:11.506Z,8.50
2023-02-21T02:11:01.022Z,8.50
2023-02-21T02:13:44.697Z,8.50
2023-02-21T02:16:33.190Z,8.50
2023-02-21T02:19:19.186Z,8.60
2023-02-21T02:22:04.661Z,8.50
2023-02-21T02:24:41.533Z,8.50
2023-02-21T02:27:42.773Z,8.60
2023-02-21T02:30:36.720Z,8.60
2023-02-21T02:33:28.054Z,8.60
2023-02-21T02:36:12.361Z,8.60
2023-02-21T02:38:52.647Z,8.60
2023-02-21T02:41:45.915Z,8.60
2023-02-21T02:44:25.670Z,8.60
2023-02-21T02:46:59.412Z,8.50
2023-02-21T02:49:30.036Z,8.50
2023-02-21T02:52:04.553Z,8.60
2023-02-21T02:54:34.691Z,8.60
2023-02-21T02:57:10.732Z,8.60
2023-02-21T02:59:42.625Z,8.70
2023-02-21T03:02:23.918Z,8.60
2023-02-21T03:05:01.668Z,8.60
2023-02-21T03:07:36.550Z,8.60
2023-02-21T03:10:35.467Z,8.60
2023-02-21T03:13:40.734Z,8.70
2023-02-21T03:16:47.413Z,8.60
2023-02-21T03:19:26.500Z,8.60
2023-02-21T03:22:00.923Z,8.60
2023-02-21T03:24:32.526Z,8.60
2023-02-21T03:27:07.072Z,8.60
2023-02-21T03:29:35.791Z,8.60
2023-02-21T03:32:13.893Z,8.70
2023-02-21T03:34:46.944Z,8.70
2023-02-21T03:37:29.526Z,8.70
2023-02-21T03:40:04.002Z,8.60
2023-02-21T03:42:34.003Z,8.70
2023-02-21T03:45:00.859Z,8.70
2023-02-21T03:47:30.940Z,8.60
2023-02-21T03:50:00.897Z,8.70
2023-02-21T03:52:27.898Z,8.80
2023-02-21T03:54:56.914Z,8.80
2023-02-21T03:57:26.257Z,8.70
2023-02-21T03:59:56.593Z,8.70
2023-02-21T04:02:26.008Z,8.70
2023-02-21T04:04:54.028Z,8.70
2023-02-21T04:07:22.255Z,8.70
2023-02-21T04:09:49.817Z,8.70
2023-02-21T04:12:19.776Z,8.70
2023-02-21T04:14:49.952Z,8.80
2023-02-21T04:17:19.975Z,8.80
2023-02-21T04:19:49.921Z,8.80
2023-02-21T04:22:19.098Z,8.80
2023-02-21T04:24:48.287Z,8.80
2023-02-21T04:27:18.301Z,8.80
2023-02-21T04:29:45.173Z,8.80
2023-02-21T04:32:14.342Z,8.80
2023-02-21T04:34:44.420Z,8.80
2023-02-21T04:37:15.464Z,8.70
2023-02-21T04:39:45.543Z,8.70
2023-02-21T04:42:18.633Z,8.70
2023-02-21T04:44:59.364Z,8.80
2023-02-21T04:47:28.174Z,8.80
2023-02-21T04:49:56.219Z,8.70
2023-02-21T04:52:26.428Z,8.80
2023-02-21T04:54:56.491Z,8.70
2023-02-21T04:57:23.546Z,8.70
2023-02-21T05:00:01.390Z,8.70
2023-02-21T05:02:28.666Z,8.70
2023-02-21T05:04:55.608Z,8.70
2023-02-21T05:07:23.781Z,8.70
2023-02-21T05:09:52.279Z,8.70
2023-02-21T05:12:21.533Z,8.80
2023-02-21T05:14:51.617Z,8.70
2023-02-21T05:17:21.597Z,8.70
2023-02-21T05:19:49.501Z,8.80
2023-02-21T05:22:20.569Z,8.80
2023-02-21T05:24:50.781Z,8.80
2023-02-21T05:27:20.912Z,8.80
2023-02-21T05:29:56.947Z,8.80
2023-02-21T05:32:24.101Z,8.80
2023-02-21T05:34:54.170Z,8.80
2023-02-21T05:37:22.232Z,8.80
2023-02-21T05:39:52.257Z,8.80
2023-02-21T05:42:25.209Z,8.80
2023-02-21T05:44:53.195Z,8.80
2023-02-21T05:47:21.112Z,8.90
2023-02-21T05:49:49.069Z,8.90
2023-02-21T05:52:17.426Z,8.90
2023-02-21T05:54:47.485Z,8.90
2023-02-21T05:57:14.478Z,8.80
2023-02-21T05:59:44.649Z,8.90
2023-02-21T06:02:15.079Z,8.80
2023-02-21T06:04:42.074Z,8.80
2023-02-21T06:07:10.061Z,8.80
2023-02-21T06:09:39.322Z,8.80
2023-02-21T06:12:06.570Z,8.80
2023-02-21T06:14:33.656Z,8.80
2023-02-21T06:17:02.531Z,8.80
2023-02-21T06:19:33.306Z,8.80
2023-02-21T06:22:03.501Z,8.80
2023-02-21T06:24:30.481Z,8.80
2023-02-21T06:26:57.498Z,8.80
2023-02-21T06:29:26.747Z,8.80
2023-02-21T06:31:58.712Z,8.70
2023-02-21T06:34:27.173Z,8.80
2023-02-21T06:36:57.134Z,8.70
2023-02-21T06:39:24.557Z,8.80
2023-02-21T06:41:51.850Z,8.70
2023-02-21T06:44:19.187Z,8.70
2023-02-21T06:46:50.944Z,8.80
2023-02-21T06:49:24.285Z,8.80
2023-02-21T06:51:52.232Z,8.80
2023-02-21T06:54:22.242Z,8.70
2023-02-21T06:56:51.231Z,8.70
2023-02-21T06:59:21.284Z,8.80
2023-02-21T07:01:49.285Z,8.70
2023-02-21T07:04:19.373Z,8.80
2023-02-21T07:06:49.878Z,8.70
2023-02-21T07:09:17.858Z,8.70
2023-02-21T07:11:48.968Z,8.60
2023-02-21T07:14:15.965Z,8.60
2023-02-21T07:16:43.014Z,8.60
2023-02-21T07:21:43.446Z,8.60
2023-02-21T07:24:11.766Z,8.50
2023-02-21T07:26:41.881Z,8.50
2023-02-21T07:29:08.942Z,8.50
2023-02-21T07:31:36.127Z,8.50
2023-02-21T07:34:03.164Z,8.50
2023-02-21T07:36:33.240Z,8.60
2023-02-21T07:39:00.264Z,8.60
2023-02-21T07:41:27.205Z,8.50
2023-02-21T07:43:54.246Z,8.50
2023-02-21T07:46:21.245Z,8.50
2023-02-21T07:48:49.170Z,8.50
2023-02-21T07:51:16.403Z,8.50
2023-02-21T07:53:46.643Z,8.60
2023-02-21T07:56:13.673Z,8.60
2023-02-21T07:58:43.739Z,8.70
2023-02-21T08:01:13.788Z,8.70
2023-02-21T08:03:41.824Z,8.70
2023-02-21T08:06:10.637Z,8.70
2023-02-21T08:08:37.568Z,8.80
2023-02-21T08:11:04.754Z,8.80
2023-02-21T08:13:34.783Z,8.70
2023-02-21T08:16:03.770Z,8.70
2023-02-21T08:18:31.722Z,8.70
2023-02-21T08:21:01.793Z,8.70
2023-02-21T08:23:30.692Z,8.80
2023-02-21T08:26:00.864Z,8.80
2023-02-21T08:28:27.905Z,8.80
2023-02-21T08:30:54.765Z,8.80
2023-02-21T08:33:22.822Z,8.90
2023-02-21T08:35:53.125Z,8.90
2023-02-21T08:38:23.141Z,8.80
2023-02-21T08:40:54.295Z,8.80
2023-02-21T08:43:25.426Z,8.90
2023-02-21T08:45:54.722Z,8.80
2023-02-21T08:48:22.747Z,8.90
2023-02-21T08:50:50.288Z,8.80
2023-02-21T08:53:17.291Z,8.90
2023-02-21T08:55:47.426Z,8.90
2023-02-21T08:58:17.648Z,8.90
2023-02-21T09:00:46.636Z,8.90
2023-02-21T09:03:14.593Z,8.90
2023-02-21T09:05:43.613Z,8.90
2023-02-21T09:08:11.564Z,8.90
2023-02-21T09:10:40.915Z,8.90
2023-02-21T09:13:07.938Z,8.90
2023-02-21T09:15:34.980Z,8.90
2023-02-21T09:18:04.116Z,9.00
2023-02-21T09:20:32.130Z,9.00
2023-02-21T09:23:00.215Z,9.00
2023-02-21T09:25:27.803Z,9.00
2023-02-21T09:27:55.134Z,9.00
2023-02-21T09:30:27.770Z,9.10
2023-02-21T09:32:58.869Z,9.00
2023-02-21T09:35:26.213Z,9.10
2023-02-21T09:37:53.237Z,9.10
2023-02-21T09:40:39.091Z,9.10
2023-02-21T09:43:19.281Z,9.10
2023-02-21T09:45:48.033Z,9.20
2023-02-21T09:48:19.594Z,9.20
2023-02-21T09:50:57.932Z,9.20
2023-02-21T09:53:32.131Z,9.10
2023-02-21T09:56:15.377Z,9.10
2023-02-21T09:58:45.209Z,9.10
2023-02-21T10:01:46.817Z,9.20
2023-02-21T10:04:26.050Z,9.20
2023-02-21T10:07:35.409Z,9.20
2023-02-21T10:10:23.868Z,9.20
2023-02-21T10:13:14.558Z,9.20
2023-02-21T10:16:13.646Z,9.20
2023-02-21T10:18:56.302Z,9.20
2023-02-21T10:21:41.964Z,9.30
2023-02-21T10:24:19.227Z,9.30
2023-02-21T10:27:15.951Z,9.30
2023-02-21T10:29:57.473Z,9.30
2023-02-21T10:32:26.208Z,9.30
2023-02-21T10:34:55.464Z,9.30
2023-02-21T10:37:48.813Z,9.40
2023-02-21T10:40:31.939Z,9.40
2023-02-21T10:44:00.859Z,9.40
2023-02-21T10:46:44.209Z,9.40
2023-02-21T10:49:40.313Z,9.50
2023-02-21T10:52:18.099Z,9.40
2023-02-21T10:55:05.158Z,9.50
2023-02-21T10:57:41.652Z,9.50
2023-02-21T11:00:19.903Z,9.50
2023-02-21T11:02:54.714Z,9.50
2023-02-21T11:05:35.324Z,9.50
2023-02-21T11:08:06.268Z,9.50
2023-02-21T11:10:41.802Z,9.50
2023-02-21T11:13:23.584Z,9.50
2023-02-21T11:16:12.216Z,9.50
2023-02-21T11:18:42.572Z,9.50
2023-02-21T11:21:20.742Z,9.50
2023-02-21T11:24:11.012Z,9.60
2023-02-21T11:26:53.496Z,9.50
2023-02-21T11:29:25.860Z,9.60
2023-02-21T11:31:56.521Z,9.60
2023-02-21T11:34:29.221Z,9.70
2023-02-21T11:37:03.405Z,9.80
2023-02-21T11:39:36.501Z,9.80
2023-02-21T11:42:31.472Z,9.90
2023-02-21T11:45:28.509Z,9.90
2023-02-21T11:48:11.844Z,10.00
2023-02-21T11:50:49.240Z,10.00
2023-02-21T11:53:36.388Z,10.00
2023-02-21T11:56:12.148Z,10.10
2023-02-21T11:59:06.989Z,10.20
2023-02-21T12:01:58.273Z,10.10
2023-02-21T12:04:43.386Z,10.20
2023-02-21T12:07:16.074Z,10.10
2023-02-21T12:10:04.015Z,10.10
2023-02-21T12:13:11.892Z,10.10
2023-02-21T12:15:39.897Z,10.20
2023-02-21T12:18:12.976Z,10.30
2023-02-21T12:21:01.340Z,10.30
2023-02-21T12:23:56.438Z,10.40
2023-02-21T12:26:31.396Z,10.50
2023-02-21T12:29:15.406Z,10.50
2023-02-21T12:32:08.975Z,10.50
2023-02-21T12:34:54.275Z,10.50
2023-02-21T12:37:21.302Z,10.50
2023-02-21T12:40:21.382Z,10.50
2023-02-21T12:43:15.189Z,10.40
2023-02-21T12:46:17.178Z,10.40
2023-02-21T12:48:56.992Z,10.50
2023-02-21T12:51:32.967Z,10.50
2023-02-21T12:54:06.272Z,10.60
2023-02-21T12:56:44.644Z,10.50
2023-02-21T12:59:37.206Z,10.60
2023-02-21T13:02:28.280Z,10.60
2023-02-21T13:05:05.461Z,10.60
2023-02-21T13:07:56.328Z,10.70
2023-02-21T13:10:50.627Z,10.70
2023-02-21T13:13:24.047Z,10.70
2023-02-21T13:15:54.167Z,10.70
2023-02-21T13:18:29.261Z,10.80
2023-02-21T13:21:19.341Z,10.80
2023-02-21T13:23:56.934Z,10.80
2023-02-21T13:26:51.850Z,10.90
2023-02-21T13:29:34.810Z,10.90
2023-02-21T13:32:10.183Z,11.00
2023-02-21T13:34:45.482Z,11.00
2023-02-21T13:37:21.040Z,11.00
2023-02-21T13:40:18.433Z,11.10
2023-02-21T13:42:47.604Z,11.00
2023-02-21T13:45:24.594Z,11.00
2023-02-21T13:47:57.701Z,11.10
2023-02-21T13:50:40.214Z,11.20
2023-02-21T13:53:17.209Z,11.10
2023-02-21T13:55:59.369Z,11.00
2023-02-21T13:58:39.714Z,10.90
2023-02-21T14:01:30.618Z,10.90
2023-02-21T14:03:57.850Z,10.90
2023-02-21T14:06:37.112Z,10.90
2023-02-21T14:09:17.702Z,10.80
2023-02-21T14:11:49.057Z,10.80
2023-02-21T14:14:22.048Z,10.80
2023-02-21T14:17:02.171Z,10.80
2023-02-21T14:19:36.027Z,10.80
2023-02-21T14:22:16.646Z,10.70
2023-02-21T14:24:48.858Z,10.70
2023-02-21T14:27:19.222Z,10.70
2023-02-21T14:29:59.310Z,10.70
2023-02-21T14:32:33.701Z,10.60
2023-02-21T14:35:33.833Z,10.60
2023-02-21T14:38:16.336Z,10.60
2023-02-21T14:40:56.001Z,10.60
2023-02-21T14:43:38.175Z,10.60
2023-02-21T14:46:35.958Z,10.50
2023-02-21T14:49:18.210Z,10.50
2023-02-21T14:51:57.101Z,10.50
2023-02-21T14:54:42.626Z,10.40
2023-02-21T14:57:47.188Z,10.30
2023-02-21T15:00:45.446Z,10.30
2023-02-21T15:03:22.121Z,10.30
2023-02-21T15:06:08.482Z,10.30
2023-02-21T15:08:47.318Z,10.30
2023-02-21T15:11:25.663Z,10.20
2023-02-21T15:14:23.311Z,10.20
2023-02-21T15:16:58.510Z,10.20
2023-02-21T15:19:32.180Z,10.20
2023-02-21T15:22:26.522Z,10.10
2023-02-21T15:25:11.172Z,10.20
2023-02-21T15:27:47.474Z,10.10
2023-02-21T15:30:37.856Z,10.10
2023-02-21T15:33:20.543Z,10.00
2023-02-21T15:35:57.211Z,10.00
2023-02-21T15:39:01.721Z,10.00
2023-02-21T15:41:44.257Z,9.90
2023-02-21T15:44:16.721Z,9.90
2023-02-21T15:47:01.000Z,9.90
2023-02-21T15:49:39.180Z,9.80
2023-02-21T15:52:39.759Z,9.80
2023-02-21T15:55:30.712Z,9.70
2023-02-21T15:58:12.053Z,9.70
2023-02-21T16:00:45.294Z,9.70
2023-02-21T16:03:54.972Z,9.70
2023-02-21T16:06:34.265Z,9.70
2023-02-21T16:09:05.653Z,9.70
2023-02-21T16:11:47.670Z,9.70
2023-02-21T16:14:25.518Z,9.70
2023-02-21T16:17:06.377Z,9.70
2023-02-21T16:19:36.729Z,9.70
2023-02-21T16:22:25.333Z,9.70
2023-02-21T16:25:13.699Z,9.70
2023-02-21T16:27:54.065Z,9.60
2023-02-21T16:30:27.483Z,9.60
2023-02-21T16:33:02.596Z,9.70
2023-02-21T16:35:31.518Z,9.60
2023-02-21T16:38:01.467Z,9.70
2023-02-21T16:40:33.703Z,9.70
2023-02-21T16:43:04.604Z,9.70
2023-02-21T16:45:34.746Z,9.60
2023-02-21T16:48:13.523Z,9.60
2023-02-21T16:50:45.835Z,9.70
2023-02-21T16:53:13.290Z,9.70
2023-02-21T16:55:45.279Z,9.70
2023-02-21T16:58:26.768Z,9.70
2023-02-21T17:00:56.187Z,9.50
2023-02-21T17:03:25.882Z,9.50
2023-02-21T17:05:53.873Z,9.40
2023-02-21T17:08:25.311Z,9.40
2023-02-21T17:10:53.385Z,9.30
2023-02-21T17:13:20.419Z,9.30
2023-02-21T17:15:49.460Z,9.30
2023-02-21T17:18:17.456Z,9.40
2023-02-21T17:20:44.500Z,9.40
2023-02-21T17:23:12.421Z,9.40
2023-02-21T17:25:39.321Z,9.40
2023-02-21T17:28:12.585Z,9.40
2023-02-21T17:30:42.699Z,9.30
2023-02-21T17:33:11.135Z,9.20
2023-02-21T17:35:39.134Z,9.20
2023-02-21T17:38:07.191Z,9.10
2023-02-21T17:40:35.181Z,9.20
2023-02-21T17:43:08.964Z,9.20
2023-02-21T17:45:37.440Z,9.10
2023-02-21T17:48:06.412Z,9.10
2023-02-21T17:50:33.547Z,9.00
2023-02-21T17:53:01.496Z,8.90
2023-02-21T17:55:30.219Z,8.90
2023-02-21T17:58:00.313Z,9.00
2023-02-21T18:00:29.397Z,9.10
2023-02-21T18:03:01.093Z,9.10
2023-02-21T18:05:30.400Z,9.10
2023-02-21T18:07:59.486Z,9.20
2023-02-21T18:10:29.739Z,9.10
2023-02-21T18:13:00.117Z,9.20
2023-02-21T18:15:28.819Z,9.10
2023-02-21T18:17:56.736Z,9.20
2023-02-21T18:20:24.948Z,9.20
2023-02-21T18:22:51.999Z,9.20
2023-02-21T18:25:21.542Z,9.10
2023-02-21T18:27:49.824Z,9.10
2023-02-21T18:30:18.616Z,9.10
2023-02-21T18:32:48.638Z,9.10
2023-02-21T18:35:18.816Z,9.10
2023-02-21T18:37:47.295Z,9.00
2023-02-21T18:40:18.435Z,9.00
2023-02-21T18:42:47.876Z,8.90
2023-02-21T18:45:17.941Z,8.90
2023-02-21T18:47:47.954Z,8.80
2023-02-21T18:50:18.825Z,8.80
2023-02-21T18:52:47.762Z,8.80
2023-02-21T18:55:14.693Z,8.80
2023-02-21T18:57:42.599Z,8.90
2023-02-21T19:00:10.992Z,8.80
2023-02-21T19:02:38.982Z,8.80
2023-02-21T19:05:07.296Z,8.80
2023-02-21T19:07:36.513Z,8.80
2023-02-21T19:10:05.819Z,8.70
2023-02-21T19:12:33.774Z,8.70
2023-02-21T19:15:00.769Z,8.70
2023-02-21T19:17:27.866Z,8.60
2023-02-21T19:19:55.771Z,8.50
2023-02-21T19:22:23.089Z,8.50
2023-02-21T19:24:50.074Z,8.50
2023-02-21T19:27:18.301Z,8.40
2023-02-21T19:29:47.442Z,8.40
2023-02-21T19:32:14.529Z,8.40
2023-02-21T19:34:42.550Z,8.40
2023-02-21T19:37:09.458Z,8.40
2023-02-21T19:39:36.835Z,8.30
2023-02-21T19:42:05.207Z,8.30
2023-02-21T19:44:32.359Z,8.20
2023-02-21T19:47:00.297Z,8.30
2023-02-21T19:49:27.655Z,8.30
2023-02-21T19:51:55.409Z,8.20
2023-02-21T19:54:30.951Z,8.20
2023-02-21T19:56:58.702Z,8.20
2023-02-21T19:59:27.007Z,8.20
2023-02-21T20:01:54.419Z,8.20
2023-02-21T20:04:22.522Z,8.20
2023-02-21T20:06:50.837Z,8.10
2023-02-21T20:09:17.785Z,8.10
2023-02-21T20:11:44.647Z,8.00
2023-02-21T20:14:12.393Z,8.00
2023-02-21T20:16:41.956Z,8.00
2023-02-21T20:19:11.728Z,8.00
2023-02-21T20:21:39.281Z,8.00
2023-02-21T20:24:10.352Z,8.00
2023-02-21T20:26:38.012Z,8.00
2023-02-21T20:29:05.808Z,8.00
2023-02-21T20:31:35.808Z,7.90
2023-02-21T20:34:03.228Z,7.90
2023-02-21T20:36:33.404Z,7.80
2023-02-21T20:39:02.593Z,7.70
2023-02-21T20:41:31.231Z,7.70
2023-02-21T20:43:59.518Z,7.60
2023-02-21T20:46:27.454Z,7.60
2023-02-21T20:48:58.578Z,7.60
2023-02-21T20:51:39.089Z,7.50
2023-02-21T20:54:12.850Z,7.50
2023-02-21T20:56:42.357Z,7.40
2023-02-21T20:59:17.136Z,7.30
2023-02-21T21:01:48.416Z,7.30
2023-02-21T21:04:22.765Z,7.20
2023-02-21T21:06:51.062Z,7.10
2023-02-21T21:09:18.214Z,7.10
2023-02-21T21:11:46.958Z,7.10
2023-02-21T21:14:16.371Z,7.10
2023-02-21T21:16:43.873Z,7.00
2023-02-21T21:19:11.827Z,7.10
2023-02-21T21:21:40.779Z,7.00
2023-02-21T21:24:07.987Z,6.90
2023-02-21T21:26:35.012Z,6.90
2023-02-21T21:29:02.141Z,6.80
2023-02-21T21:31:29.176Z,6.80
2023-02-21T21:33:56.529Z,6.80
2023-02-21T21:36:24.592Z,6.80
2023-02-21T21:38:51.539Z,6.80
2023-02-21T21:41:18.852Z,6.70
2023-02-21T21:43:46.605Z,6.70
2023-02-21T21:46:15.014Z,6.70
2023-02-21T21:48:43.810Z,6.60
2023-02-21T21:51:11.757Z,6.60
2023-02-21T21:53:40.118Z,6.50
2023-02-21T21:56:11.396Z,6.50
2023-02-21T21:58:38.443Z,6.50
2023-02-21T22:01:05.637Z,6.40
2023-02-21T22:03:33.071Z,6.40
2023-02-21T22:06:00.721Z,6.40
2023-02-21T22:08:29.292Z,6.30
2023-02-21T22:11:00.290Z,6.40
2023-02-21T22:13:29.579Z,6.40
2023-02-21T22:15:56.636Z,6.40
2023-02-21T22:18:24.167Z,6.40
2023-02-21T22:20:51.226Z,6.40
2023-02-21T22:23:21.392Z,6.40
2023-02-21T22:25:49.000Z,6.30
2023-02-21T22:28:16.738Z,6.30
2023-02-21T22:30:44.034Z,6.20
2023-02-21T22:33:13.608Z,6.20
2023-02-21T22:35:41.449Z,6.20
2023-02-21T22:38:14.396Z,6.20
2023-02-21T22:40:42.478Z,6.20
2023-02-21T22:43:10.623Z,6.10
2023-02-21T22:45:38.079Z,6.10
2023-02-21T22:48:07.566Z,6.10
2023-02-21T22:50:37.178Z,6.10
2023-02-21T22:53:13.103Z,6.10
2023-02-21T22:55:40.429Z,6.10
2023-02-21T22:58:09.501Z,6.10
2023-02-21T23:00:37.905Z,6.00
2023-02-21T23:03:13.252Z,6.00
2023-02-21T23:05:47.037Z,6.00
2023-02-21T23:08:17.331Z,6.00
2023-02-21T23:10:44.614Z,5.90
2023-02-21T23:13:17.653Z,5.90
2023-02-21T23:15:45.270Z,5.90
2023-02-21T23:18:20.561Z,5.90
2023-02-21T23:20:53.122Z,5.90
2023-02-21T23:23:26.085Z,5.90
2023-02-21T23:26:00.837Z,5.80
2023-02-21T23:28:30.002Z,5.90
2023-02-21T23:30:58.412Z,5.80
2023-02-21T23:33:30.474Z,5.80
2023-02-21T23:35:58.316Z,5.80
2023-02-21T23:38:28.316Z,5.70
2023-02-21T23:40:57.693Z,5.70
2023-02-21T23:43:29.826Z,5.70
2023-02-21T23:45:58.543Z,5.70
2023-02-21T23:48:25.691Z,5.60
2023-02-21T23:50:57.868Z,5.60
2023-02-21T23:53:27.769Z,5.60
2023-02-21T23:56:00.790Z,5.60
2023-02-21T23:58:31.686Z,5.60
